createdAt,value
2022-10-22T00:08:46.739Z,9.51
2022-10-22T00:19:01.971Z,9.57
2022-10-22T00:29:12.654Z,9.64
2022-10-22T00:39:19.758Z,9.69
2022-10-22T00:49:23.761Z,9.67
2022-10-22T00:59:39.935Z,9.76
2022-10-22T01:09:57.835Z,9.85
2022-10-22T01:20:23.545Z,9.93
2022-10-22T01:30:40.771Z,9.95
2022-10-22T01:40:49.820Z,9.97
2022-10-22T01:51:22.052Z,10.00
2022-10-22T02:01:35.550Z,10.04
2022-10-22T02:11:45.145Z,10.02
2022-10-22T02:21:48.643Z,9.99
2022-10-22T02:31:56.147Z,10.01
2022-10-22T02:42:13.618Z,10.04
2022-10-22T02:52:20.087Z,10.09
2022-10-22T03:02:33.560Z,10.13
2022-10-22T03:12:37.370Z,10.15
2022-10-22T03:22:45.009Z,10.21
2022-10-22T03:32:51.283Z,10.26
2022-10-22T03:43:01.719Z,10.27
2022-10-22T03:53:05.772Z,10.29
2022-10-22T04:03:52.722Z,10.29
2022-10-22T04:13:52.376Z,10.29
2022-10-22T04:24:22.091Z,10.28
2022-10-22T04:34:40.558Z,10.31
2022-10-22T04:45:01.178Z,10.29
2022-10-22T04:55:11.299Z,10.33
2022-10-22T05:05:17.103Z,10.37
2022-10-22T05:15:33.002Z,10.46
2022-10-22T05:25:45.238Z,10.56
2022-10-22T05:35:54.627Z,10.64
2022-10-22T05:46:28.289Z,10.70
2022-10-22T05:56:44.837Z,10.75
2022-10-22T06:07:02.275Z,10.83
2022-10-22T06:17:17.764Z,10.86
2022-10-22T06:27:24.543Z,10.92
2022-10-22T06:37:43.019Z,10.99
2022-10-22T06:47:51.730Z,11.01
2022-10-22T06:58:19.331Z,11.08
2022-10-22T07:08:23.163Z,11.14
2022-10-22T07:18:33.893Z,11.12
2022-10-22T07:28:58.746Z,11.05
2022-10-22T07:39:08.143Z,11.06
2022-10-22T07:49:16.845Z,11.18
2022-10-22T07:59:25.562Z,11.25
2022-10-22T08:20:58.340Z,11.43
2022-10-22T08:31:09.228Z,11.50
2022-10-22T08:41:23.288Z,11.60
2022-10-22T08:51:44.530Z,11.75
2022-10-22T09:02:40.075Z,11.89
2022-10-22T09:13:00.952Z,11.97
2022-10-22T09:24:19.641Z,12.01
2022-10-22T11:35:25.788Z,13.08
2022-10-22T11:59:41.969Z,13.24
2022-10-22T12:10:18.845Z,13.39
2022-10-22T12:20:50.571Z,13.46
2022-10-22T12:31:32.808Z,13.53
2022-10-22T12:53:26.774Z,13.51
2022-10-22T13:04:10.392Z,13.53
2022-10-22T13:14:54.705Z,13.46
2022-10-22T13:25:41.540Z,13.44
2022-10-22T13:36:04.262Z,13.46
2022-10-22T13:46:23.439Z,13.40
2022-10-22T13:56:35.854Z,13.40
2022-10-22T14:06:50.482Z,13.35
2022-10-22T15:02:27.737Z,13.42
2022-10-22T15:36:09.870Z,13.39
2022-10-22T15:46:42.748Z,13.38
2022-10-22T15:57:39.305Z,13.39
2022-10-22T16:08:28.884Z,13.37
2022-10-22T16:41:01.490Z,13.38
2022-10-22T17:02:40.971Z,13.43
2022-10-22T17:13:34.918Z,13.42
2022-10-22T17:24:32.013Z,13.39
2022-10-22T17:35:15.633Z,13.38
2022-10-22T17:47:08.146Z,13.36
2022-10-22T17:57:53.358Z,13.35
2022-10-22T18:08:24.062Z,13.27
2022-10-22T18:19:11.412Z,13.23
2022-10-22T18:29:33.592Z,13.22
2022-10-22T18:39:53.496Z,13.19
2022-10-22T18:50:22.179Z,13.21
2022-10-22T19:01:02.012Z,13.21
2022-10-22T19:34:27.120Z,13.16
2022-10-22T20:08:40.982Z,13.18
2022-10-22T20:41:58.301Z,13.22
2022-10-22T21:38:47.609Z,13.27
2022-10-22T22:35:47.379Z,13.28
2022-10-22T23:20:45.955Z,13.30
2022-10-22T23:43:36.212Z,13.31
2022-10-22T23:55:18.941Z,13.29
